createdAt,value
2023-03-12T00:00:11.316Z,11.02
2023-03-12T00:02:38.819Z,10.94
2023-03-12T00:05:06.574Z,11.01
2023-03-12T00:07:36.323Z,11.01
2023-03-12T00:10:05.278Z,11.03
2023-03-12T00:12:32.380Z,10.82
2023-03-12T00:14:59.787Z,10.88
2023-03-12T00:17:28.683Z,10.79
2023-03-12T00:19:55.790Z,10.76
2023-03-12T00:22:23.169Z,10.81
2023-03-12T00:24:57.351Z,10.90
2023-03-12T00:27:27.408Z,10.83
2023-03-12T00:29:55.202Z,10.62
2023-03-12T00:32:22.874Z,10.73
2023-03-12T00:34:55.756Z,10.84
2023-03-12T00:37:23.438Z,10.71
2023-03-12T00:39:50.804Z,10.67
2023-03-12T00:42:18.266Z,10.56
2023-03-12T00:44:45.830Z,10.62
2023-03-12T00:47:13.727Z,10.67
2023-03-12T00:49:41.057Z,10.61
2023-03-12T00:52:08.390Z,10.56
2023-03-12T00:54:35.769Z,10.59
2023-03-12T00:57:02.799Z,10.51
2023-03-12T00:59:31.092Z,10.58
2023-03-12T01:01:58.528Z,10.58
2023-03-12T01:04:25.771Z,10.45
2023-03-12T01:06:52.766Z,10.37
2023-03-12T01:09:20.223Z,10.40
2023-03-12T01:11:47.579Z,10.32
2023-03-12T01:14:14.943Z,10.33
2023-03-12T01:16:42.348Z,10.52
2023-03-12T01:19:09.772Z,10.54
2023-03-12T01:21:37.168Z,10.50
2023-03-12T01:24:04.781Z,10.55
2023-03-12T01:26:31.910Z,10.42
2023-03-12T01:28:59.341Z,10.38
2023-03-12T01:31:26.470Z,10.35
2023-03-12T01:33:54.600Z,10.45
2023-03-12T01:36:28.688Z,10.65
2023-03-12T01:38:58.788Z,10.46
2023-03-12T01:41:29.474Z,10.46
2023-03-12T01:43:57.055Z,10.44
2023-03-12T01:46:36.900Z,10.66
2023-03-12T01:49:17.808Z,10.57
2023-03-12T01:52:05.030Z,10.54
2023-03-12T01:54:55.284Z,10.59
2023-03-12T01:57:34.260Z,10.65
2023-03-12T02:00:18.446Z,10.64
2023-03-12T02:02:46.773Z,10.35
2023-03-12T02:05:43.389Z,10.60
2023-03-12T02:08:12.404Z,10.36
2023-03-12T02:10:40.554Z,10.26
2023-03-12T02:13:08.528Z,10.30
2023-03-12T02:15:36.722Z,10.37
2023-03-12T02:18:08.212Z,10.38
2023-03-12T02:21:15.013Z,10.60
2023-03-12T02:23:53.823Z,10.43
2023-03-12T02:26:22.279Z,10.27
2023-03-12T02:28:50.990Z,10.27
2023-03-12T02:31:26.591Z,10.25
2023-03-12T02:33:55.888Z,10.06
2023-03-12T02:36:22.972Z,10.00
2023-03-12T02:38:52.970Z,10.17
2023-03-12T02:41:20.667Z,10.06
2023-03-12T02:43:55.875Z,10.25
2023-03-12T02:46:23.466Z,10.24
2023-03-12T02:48:51.942Z,10.28
2023-03-12T02:51:19.313Z,10.12
2023-03-12T02:53:46.830Z,9.98
2023-03-12T02:56:14.826Z,9.99
2023-03-12T02:58:43.022Z,9.94
2023-03-12T03:01:10.513Z,9.99
2023-03-12T03:03:38.084Z,10.01
2023-03-12T03:06:05.623Z,9.95
2023-03-12T03:08:32.600Z,9.93
2023-03-12T03:11:02.959Z,10.06
2023-03-12T03:13:31.062Z,10.01
2023-03-12T03:15:59.751Z,10.05
2023-03-12T03:18:27.646Z,10.02
2023-03-12T03:21:02.654Z,10.13
2023-03-12T03:23:32.717Z,9.88
2023-03-12T03:26:00.658Z,9.89
2023-03-12T03:28:29.856Z,9.78
2023-03-12T03:31:01.635Z,10.03
2023-03-12T03:33:35.673Z,9.99
2023-03-12T03:36:05.699Z,9.94
2023-03-12T03:38:36.352Z,9.95
2023-03-12T03:41:04.451Z,10.02
2023-03-12T03:43:33.967Z,9.80
2023-03-12T03:46:04.767Z,9.76
2023-03-12T03:48:35.646Z,9.55
2023-03-12T03:51:05.256Z,9.95
2023-03-12T03:53:34.966Z,9.87
2023-03-12T03:56:10.843Z,10.15
2023-03-12T03:58:41.350Z,9.84
2023-03-12T04:01:09.105Z,9.89
2023-03-12T04:03:37.012Z,9.88
2023-03-12T04:06:06.681Z,9.97
2023-03-12T04:08:37.250Z,10.02
2023-03-12T04:11:13.326Z,10.10
2023-03-12T04:13:40.908Z,9.99
2023-03-12T04:16:09.417Z,10.11
2023-03-12T04:18:38.668Z,10.00
2023-03-12T04:21:08.239Z,10.11
2023-03-12T04:23:36.874Z,9.92
2023-03-12T04:26:05.363Z,9.87
2023-03-12T04:28:33.108Z,9.91
2023-03-12T04:31:04.134Z,9.96
2023-03-12T04:33:39.493Z,9.99
2023-03-12T04:36:08.704Z,9.92
2023-03-12T04:38:38.273Z,9.66
2023-03-12T04:41:16.553Z,9.79
2023-03-12T04:43:51.525Z,9.80
2023-03-12T04:46:20.102Z,9.66
2023-03-12T04:48:47.253Z,9.61
2023-03-12T04:51:15.598Z,9.46
2023-03-12T04:53:43.313Z,9.72
2023-03-12T04:56:12.243Z,9.88
2023-03-12T04:58:40.405Z,9.92
2023-03-12T05:01:12.025Z,9.92
2023-03-12T05:03:39.530Z,9.91
2023-03-12T05:06:06.965Z,10.04
2023-03-12T05:08:34.401Z,9.87
2023-03-12T05:11:02.716Z,10.01
2023-03-12T05:13:30.106Z,10.06
2023-03-12T05:15:58.309Z,10.00
2023-03-12T05:18:26.931Z,10.06
2023-03-12T05:21:07.787Z,10.21
2023-03-12T05:23:36.021Z,10.07
2023-03-12T05:26:03.192Z,10.02
2023-03-12T05:28:30.713Z,9.96
2023-03-12T05:31:01.798Z,9.92
2023-03-12T05:33:30.780Z,9.87
2023-03-12T05:36:00.770Z,9.72
2023-03-12T05:38:28.265Z,9.98
2023-03-12T05:40:59.223Z,10.08
2023-03-12T05:43:28.691Z,10.06
2023-03-12T05:46:00.854Z,10.00
2023-03-12T05:48:28.657Z,9.97
2023-03-12T05:50:56.796Z,10.05
2023-03-12T05:53:24.519Z,9.98
2023-03-12T05:55:52.148Z,9.86
2023-03-12T05:58:19.849Z,10.02
2023-03-12T06:00:47.337Z,9.88
2023-03-12T06:03:15.845Z,9.98
2023-03-12T06:05:45.556Z,10.07
2023-03-12T06:08:13.268Z,9.98
2023-03-12T06:10:41.036Z,9.95
2023-03-12T06:13:09.166Z,9.92
2023-03-12T06:15:36.675Z,9.94
2023-03-12T06:18:06.216Z,9.86
2023-03-12T06:20:34.833Z,10.04
2023-03-12T06:23:02.208Z,10.02
2023-03-12T06:25:29.782Z,9.85
2023-03-12T06:27:57.947Z,9.78
2023-03-12T06:30:27.051Z,9.65
2023-03-12T06:32:54.654Z,9.92
2023-03-12T06:35:22.395Z,9.83
2023-03-12T06:37:49.804Z,9.92
2023-03-12T06:40:17.944Z,9.84
2023-03-12T06:42:45.180Z,9.70
2023-03-12T06:45:12.630Z,10.18
2023-03-12T06:47:40.016Z,9.93
2023-03-12T06:50:07.399Z,9.71
2023-03-12T06:52:35.074Z,9.90
2023-03-12T06:55:02.494Z,9.74
2023-03-12T06:57:29.851Z,9.74
2023-03-12T06:59:57.246Z,9.67
2023-03-12T07:02:24.753Z,9.39
2023-03-12T07:04:52.309Z,9.66
2023-03-12T07:07:20.084Z,8.49
2023-03-12T07:09:47.484Z,9.49
2023-03-12T07:12:14.472Z,9.52
2023-03-12T07:14:41.907Z,9.24
2023-03-12T07:17:09.324Z,9.33
2023-03-12T07:19:36.940Z,9.58
2023-03-12T07:22:04.663Z,8.92
2023-03-12T07:24:32.222Z,8.15
2023-03-12T07:26:59.784Z,9.23
2023-03-12T07:29:27.196Z,9.50
2023-03-12T07:31:54.568Z,9.24
2023-03-12T07:34:22.069Z,9.13
2023-03-12T07:36:49.576Z,9.59
2023-03-12T07:39:17.291Z,9.89
2023-03-12T07:41:44.846Z,9.85
2023-03-12T07:44:12.409Z,10.26
2023-03-12T07:46:39.877Z,10.10
2023-03-12T07:49:07.636Z,9.46
2023-03-12T07:51:35.089Z,10.20
2023-03-12T07:54:02.490Z,10.14
2023-03-12T07:56:29.925Z,10.33
2023-03-12T07:58:57.560Z,9.69
2023-03-12T08:01:31.711Z,9.87
2023-03-12T08:03:59.526Z,10.34
2023-03-12T08:06:27.280Z,10.41
2023-03-12T08:08:54.814Z,10.75
2023-03-12T08:11:22.645Z,10.76
2023-03-12T08:13:50.088Z,10.90
2023-03-12T08:16:18.490Z,10.80
2023-03-12T08:18:45.834Z,10.28
2023-03-12T08:21:16.411Z,10.19
2023-03-12T08:23:44.284Z,10.58
2023-03-12T08:26:11.745Z,10.54
2023-03-12T08:28:39.144Z,10.71
2023-03-12T08:31:07.351Z,9.85
2023-03-12T08:33:34.682Z,10.20
2023-03-12T08:36:02.145Z,10.46
2023-03-12T08:38:29.190Z,10.26
2023-03-12T08:41:00.380Z,10.08
2023-03-12T08:43:29.453Z,10.10
2023-03-12T08:46:02.440Z,10.48
2023-03-12T08:48:31.780Z,10.35
2023-03-12T08:51:00.541Z,10.53
2023-03-12T08:53:28.322Z,10.61
2023-03-12T08:55:56.730Z,9.89
2023-03-12T08:58:25.421Z,9.61
2023-03-12T09:00:53.305Z,9.79
2023-03-12T09:03:21.615Z,10.31
2023-03-12T09:05:49.859Z,10.04
2023-03-12T09:08:17.705Z,9.41
2023-03-12T09:10:50.253Z,10.36
2023-03-12T09:13:17.919Z,9.98
2023-03-12T09:15:45.320Z,9.94
2023-03-12T09:18:12.700Z,9.92
2023-03-12T09:20:41.759Z,10.36
2023-03-12T09:23:09.128Z,10.50
2023-03-12T09:25:36.474Z,10.67
2023-03-12T09:28:03.826Z,10.70
2023-03-12T09:30:32.185Z,10.69
2023-03-12T09:32:59.867Z,10.66
2023-03-12T09:35:27.239Z,10.45
2023-03-12T09:37:54.595Z,10.24
2023-03-12T09:40:25.963Z,9.70
2023-03-12T09:42:59.528Z,10.80
2023-03-12T09:45:31.247Z,10.26
2023-03-12T09:48:04.901Z,11.12
2023-03-12T09:50:43.566Z,10.87
2023-03-12T09:53:33.934Z,10.65
2023-03-12T09:56:09.192Z,10.65
2023-03-12T09:58:38.407Z,11.12
2023-03-12T10:01:24.422Z,10.90
2023-03-12T10:04:24.851Z,11.18
2023-03-12T10:07:19.192Z,11.19
2023-03-12T10:09:52.084Z,10.78
2023-03-12T10:12:34.770Z,11.29
2023-03-12T10:15:42.979Z,11.39
2023-03-12T10:18:39.141Z,11.85
2023-03-12T10:21:22.324Z,10.50
2023-03-12T10:23:52.770Z,11.53
2023-03-12T10:26:25.730Z,12.19
2023-03-12T10:29:06.255Z,11.76
2023-03-12T10:31:48.274Z,11.11
2023-03-12T10:34:25.290Z,11.42
2023-03-12T10:36:52.908Z,11.04
2023-03-12T10:39:20.997Z,11.55
2023-03-12T10:41:49.250Z,11.73
2023-03-12T10:44:24.981Z,12.31
2023-03-12T10:47:28.827Z,12.65
2023-03-12T10:50:00.518Z,11.83
2023-03-12T10:52:27.909Z,12.23
2023-03-12T10:54:55.256Z,12.43
2023-03-12T10:57:23.710Z,12.41
2023-03-12T10:59:51.643Z,12.81
2023-03-12T11:02:46.336Z,12.98
2023-03-12T11:05:31.404Z,12.86
2023-03-12T11:08:01.800Z,12.09
2023-03-12T11:10:59.799Z,13.00
2023-03-12T11:13:38.321Z,12.96
2023-03-12T11:16:17.446Z,13.35
2023-03-12T11:19:04.715Z,12.55
2023-03-12T11:21:37.072Z,12.86
2023-03-12T11:24:07.322Z,13.00
2023-03-12T11:26:43.921Z,12.74
2023-03-12T11:29:30.680Z,12.39
2023-03-12T11:32:31.726Z,12.45
2023-03-12T11:34:59.278Z,12.52
2023-03-12T11:37:40.167Z,12.79
2023-03-12T11:40:21.765Z,13.19
2023-03-12T11:43:43.650Z,12.88
2023-03-12T11:46:32.358Z,13.43
2023-03-12T11:49:18.198Z,13.49
2023-03-12T11:52:21.442Z,12.78
2023-03-12T11:55:48.885Z,12.88
2023-03-12T11:58:53.160Z,12.94
2023-03-12T12:02:00.922Z,13.89
2023-03-12T12:04:50.242Z,13.92
2023-03-12T12:07:35.181Z,13.47
2023-03-12T12:10:58.310Z,13.39
2023-03-12T12:13:34.473Z,14.08
2023-03-12T12:16:13.778Z,13.64
2023-03-12T12:19:35.093Z,13.91
2023-03-12T12:22:45.343Z,13.73
2023-03-12T12:25:26.089Z,13.39
2023-03-12T12:28:42.034Z,13.63
2023-03-12T12:31:24.389Z,14.81
2023-03-12T12:33:57.927Z,14.78
2023-03-12T12:36:26.373Z,13.96
2023-03-12T12:39:01.416Z,14.08
2023-03-12T12:41:41.923Z,14.07
2023-03-12T12:44:30.048Z,13.97
2023-03-12T12:47:05.629Z,14.51
2023-03-12T12:50:03.107Z,14.19
2023-03-12T12:52:31.136Z,13.78
2023-03-12T12:55:04.310Z,14.86
2023-03-12T12:57:53.448Z,14.71
2023-03-12T13:00:44.161Z,14.50
2023-03-12T13:03:21.603Z,14.24
2023-03-12T13:06:06.509Z,14.94
2023-03-12T13:09:01.941Z,14.90
2023-03-12T13:11:44.335Z,14.84
2023-03-12T13:14:11.237Z,14.91
2023-03-12T13:16:46.853Z,14.91
2023-03-12T13:19:14.107Z,15.24
2023-03-12T13:21:42.030Z,14.71
2023-03-12T13:24:51.741Z,14.90
2023-03-12T13:27:28.920Z,14.52
2023-03-12T13:29:59.463Z,14.38
2023-03-12T13:32:37.672Z,14.38
2023-03-12T13:35:31.738Z,14.27
2023-03-12T13:38:03.970Z,14.45
2023-03-12T13:41:00.778Z,14.32
2023-03-12T13:43:39.993Z,13.79
2023-03-12T13:46:16.036Z,14.83
2023-03-12T13:48:47.943Z,14.26
2023-03-12T13:51:24.433Z,15.03
2023-03-12T13:53:56.900Z,16.84
2023-03-12T13:56:31.031Z,18.17
2023-03-12T13:59:03.551Z,15.38
2023-03-12T14:01:37.585Z,15.00
2023-03-12T14:04:08.124Z,15.96
2023-03-12T14:07:12.490Z,15.37
2023-03-12T14:10:08.887Z,15.15
2023-03-12T14:13:18.246Z,16.13
2023-03-12T14:16:37.923Z,15.21
2023-03-12T14:19:06.208Z,15.12
2023-03-12T14:21:40.100Z,15.49
2023-03-12T14:24:11.574Z,15.46
2023-03-12T14:26:39.633Z,15.70
2023-03-12T14:29:10.632Z,15.48
2023-03-12T14:31:39.060Z,15.32
2023-03-12T14:34:12.176Z,14.81
2023-03-12T14:37:05.890Z,14.97
2023-03-12T14:39:39.701Z,14.73
2023-03-12T14:42:09.170Z,14.71
2023-03-12T14:44:38.599Z,15.39
2023-03-12T14:47:18.840Z,15.53
2023-03-12T14:49:47.291Z,15.40
2023-03-12T14:52:22.575Z,15.73
2023-03-12T14:55:07.593Z,15.48
2023-03-12T14:57:35.451Z,15.81
2023-03-12T15:00:03.177Z,16.34
2023-03-12T15:02:31.787Z,15.56
2023-03-12T15:05:01.723Z,15.36
2023-03-12T15:07:34.764Z,16.49
2023-03-12T15:10:20.843Z,15.65
2023-03-12T15:12:48.387Z,15.66
2023-03-12T15:15:37.333Z,16.30
2023-03-12T15:18:13.837Z,16.23
2023-03-12T15:20:41.648Z,15.81
2023-03-12T15:23:13.626Z,15.85
2023-03-12T15:25:41.537Z,16.03
2023-03-12T15:28:29.164Z,16.65
2023-03-12T15:31:16.739Z,16.88
2023-03-12T15:33:44.707Z,16.60
2023-03-12T15:36:24.728Z,16.33
2023-03-12T15:38:56.042Z,16.33
2023-03-12T15:41:49.088Z,16.87
2023-03-12T15:44:33.182Z,16.51
2023-03-12T15:47:14.596Z,16.70
2023-03-12T15:49:42.393Z,16.15
2023-03-12T15:52:18.760Z,15.75
2023-03-12T15:55:13.014Z,16.63
2023-03-12T15:57:48.672Z,16.33
2023-03-12T16:00:44.237Z,16.58
2023-03-12T16:03:20.046Z,16.37
2023-03-12T16:05:48.727Z,15.95
2023-03-12T16:08:38.859Z,16.28
2023-03-12T16:11:25.218Z,16.14
2023-03-12T16:14:04.946Z,16.10
2023-03-12T16:16:32.455Z,15.66
2023-03-12T16:18:59.797Z,16.14
2023-03-12T16:21:27.312Z,16.16
2023-03-12T16:23:54.696Z,16.15
2023-03-12T16:26:22.461Z,16.29
2023-03-12T16:28:50.594Z,15.73
2023-03-12T16:31:18.058Z,16.24
2023-03-12T16:33:45.513Z,15.85
2023-03-12T16:36:15.955Z,16.14
2023-03-12T16:38:44.302Z,16.27
2023-03-12T16:41:17.745Z,16.17
2023-03-12T16:43:51.118Z,16.22
2023-03-12T16:46:21.663Z,15.85
2023-03-12T16:48:53.610Z,16.13
2023-03-12T16:51:21.120Z,16.46
2023-03-12T16:53:55.843Z,16.74
2023-03-12T16:56:29.569Z,16.31
2023-03-12T16:58:58.460Z,16.33
2023-03-12T17:01:29.140Z,16.30
2023-03-12T17:03:56.544Z,16.13
2023-03-12T17:06:26.441Z,15.83
2023-03-12T17:08:54.488Z,16.27
2023-03-12T17:11:25.667Z,16.28
2023-03-12T17:13:59.933Z,16.13
2023-03-12T17:16:27.862Z,16.09
2023-03-12T17:18:55.412Z,16.22
2023-03-12T17:21:23.247Z,16.21
2023-03-12T17:23:51.200Z,15.92
2023-03-12T17:26:19.736Z,15.86
2023-03-12T17:28:47.231Z,16.12
2023-03-12T17:31:14.956Z,15.62
2023-03-12T17:33:43.288Z,16.36
2023-03-12T17:36:11.123Z,16.38
2023-03-12T17:38:38.608Z,16.03
2023-03-12T17:41:16.547Z,15.94
2023-03-12T17:43:50.606Z,15.31
2023-03-12T17:46:18.082Z,15.76
2023-03-12T17:48:45.094Z,15.49
2023-03-12T17:51:12.511Z,15.86
2023-03-12T17:53:41.714Z,16.24
2023-03-12T17:56:09.565Z,16.22
2023-03-12T17:58:36.973Z,15.49
2023-03-12T18:01:04.732Z,15.68
2023-03-12T18:03:32.061Z,15.99
2023-03-12T18:05:59.067Z,15.26
2023-03-12T18:08:26.556Z,15.71
2023-03-12T18:10:54.194Z,15.81
2023-03-12T18:13:21.679Z,15.57
2023-03-12T18:15:56.823Z,16.15
2023-03-12T18:18:26.081Z,15.72
2023-03-12T18:20:54.136Z,15.30
2023-03-12T18:23:25.302Z,15.22
2023-03-12T18:25:53.126Z,15.75
2023-03-12T18:28:20.950Z,15.46
2023-03-12T18:30:49.003Z,15.47
2023-03-12T18:33:16.982Z,15.11
2023-03-12T18:35:44.805Z,15.14
2023-03-12T18:38:12.641Z,15.34
2023-03-12T18:40:40.016Z,15.36
2023-03-12T18:43:07.525Z,15.01
2023-03-12T18:45:35.858Z,15.54
2023-03-12T18:48:03.243Z,15.42
2023-03-12T18:50:30.622Z,15.52
2023-03-12T18:52:57.997Z,15.19
2023-03-12T18:55:25.532Z,15.45
2023-03-12T18:57:53.047Z,15.16
2023-03-12T19:00:20.629Z,15.44
2023-03-12T19:02:48.725Z,15.43
2023-03-12T19:05:16.555Z,15.67
2023-03-12T19:07:44.410Z,15.43
2023-03-12T19:10:12.552Z,15.81
2023-03-12T19:12:51.708Z,15.69
2023-03-12T19:15:22.496Z,15.71
2023-03-12T19:17:50.158Z,15.72
2023-03-12T19:20:17.882Z,15.79
2023-03-12T19:22:45.485Z,16.29
2023-03-12T19:25:13.476Z,15.50
2023-03-12T19:27:43.246Z,15.47
2023-03-12T19:30:11.222Z,15.90
2023-03-12T19:32:43.871Z,15.52
2023-03-12T19:35:13.611Z,16.41
2023-03-12T19:37:41.573Z,16.32
2023-03-12T19:40:10.849Z,15.43
2023-03-12T19:42:38.392Z,15.85
2023-03-12T19:45:06.290Z,15.88
2023-03-12T19:47:35.558Z,15.90
2023-03-12T19:50:03.292Z,15.71
2023-03-12T19:52:33.999Z,15.86
2023-03-12T19:55:05.197Z,15.84
2023-03-12T19:57:33.862Z,15.96
2023-03-12T20:00:03.801Z,15.90
2023-03-12T20:02:34.020Z,15.88
2023-03-12T20:05:01.814Z,16.22
2023-03-12T20:07:32.410Z,16.10
2023-03-12T20:10:05.574Z,16.27
2023-03-12T20:12:37.509Z,16.45
2023-03-12T20:15:05.907Z,16.28
2023-03-12T20:17:33.295Z,16.31
2023-03-12T20:20:01.193Z,16.14
2023-03-12T20:22:28.589Z,16.02
2023-03-12T20:24:56.404Z,15.88
2023-03-12T20:27:26.498Z,16.18
2023-03-12T20:29:53.949Z,15.85
2023-03-12T20:32:21.458Z,16.09
2023-03-12T20:34:49.424Z,15.96
2023-03-12T20:37:19.892Z,16.29
2023-03-12T20:39:47.336Z,16.11
2023-03-12T20:42:14.788Z,16.21
2023-03-12T20:44:42.514Z,16.30
2023-03-12T20:47:12.843Z,16.25
2023-03-12T20:49:40.448Z,15.81
2023-03-12T20:52:07.845Z,16.34
2023-03-12T20:54:35.329Z,15.71
2023-03-12T20:57:02.946Z,15.93
2023-03-12T20:59:30.317Z,15.79
2023-03-12T21:01:57.665Z,15.95
2023-03-12T21:04:25.073Z,15.79
2023-03-12T21:06:52.103Z,15.86
2023-03-12T21:09:21.737Z,16.21
2023-03-12T21:11:48.748Z,15.39
2023-03-12T21:14:16.294Z,15.88
2023-03-12T21:16:43.769Z,16.18
2023-03-12T21:19:11.138Z,15.61
2023-03-12T21:21:38.392Z,16.31
2023-03-12T21:24:08.897Z,15.88
2023-03-12T21:26:36.469Z,15.92
2023-03-12T21:29:04.340Z,16.27
2023-03-12T21:31:31.785Z,16.11
2023-03-12T21:33:59.171Z,15.69
2023-03-12T21:36:27.029Z,15.66
2023-03-12T21:38:53.980Z,15.86
2023-03-12T21:41:21.824Z,16.08
2023-03-12T21:43:49.252Z,16.03
2023-03-12T21:46:19.955Z,15.85
2023-03-12T21:48:48.395Z,15.50
2023-03-12T21:51:17.389Z,15.22
2023-03-12T21:53:44.792Z,16.52
2023-03-12T21:56:13.037Z,15.96
2023-03-12T21:58:40.155Z,15.50
2023-03-12T22:01:13.783Z,15.58
2023-03-12T22:03:43.031Z,16.04
2023-03-12T22:06:11.249Z,15.28
2023-03-12T22:08:39.464Z,15.55
2023-03-12T22:11:08.659Z,15.82
2023-03-12T22:13:36.311Z,15.45
2023-03-12T22:16:07.741Z,16.34
2023-03-12T22:18:39.706Z,16.18
2023-03-12T22:21:07.930Z,15.86
2023-03-12T22:23:36.975Z,15.73
2023-03-12T22:26:07.902Z,15.87
2023-03-12T22:28:35.716Z,15.76
2023-03-12T22:31:06.379Z,15.68
2023-03-12T22:33:36.057Z,16.15
2023-03-12T22:36:09.393Z,15.76
2023-03-12T22:38:37.809Z,15.07
2023-03-12T22:41:31.610Z,15.67
2023-03-12T22:44:05.415Z,15.62
2023-03-12T22:46:33.052Z,15.10
2023-03-12T22:49:01.817Z,14.79
2023-03-12T22:51:31.583Z,15.09
2023-03-12T22:53:58.961Z,15.95
2023-03-12T22:56:26.205Z,15.63
2023-03-12T22:58:54.830Z,15.67
2023-03-12T23:01:23.325Z,15.82
2023-03-12T23:03:51.472Z,14.96
2023-03-12T23:06:25.507Z,14.55
2023-03-12T23:08:54.958Z,14.79
2023-03-12T23:11:25.303Z,14.86
2023-03-12T23:13:53.010Z,15.09
2023-03-12T23:16:25.772Z,15.46
2023-03-12T23:18:53.328Z,14.75
2023-03-12T23:21:22.617Z,14.95
2023-03-12T23:23:50.491Z,14.85
2023-03-12T23:26:24.030Z,14.48
2023-03-12T23:28:53.314Z,14.43
2023-03-12T23:31:20.878Z,14.79
2023-03-12T23:33:48.045Z,14.50
2023-03-12T23:36:19.132Z,14.69
2023-03-12T23:38:47.766Z,14.59
2023-03-12T23:41:21.177Z,14.73
2023-03-12T23:43:48.797Z,14.82
2023-03-12T23:46:19.808Z,14.63
2023-03-12T23:48:47.245Z,14.44
2023-03-12T23:51:15.223Z,14.20
2023-03-12T23:53:45.495Z,15.13
2023-03-12T23:56:16.907Z,15.07
2023-03-12T23:58:44.658Z,14.25
